Terminal Aerodrome Forecast
Issued by NWS Sterling, VA

Current Version | Previous Version | Text Only | Print | Product List | Glossary Off
Versions: 1 2 3 4 5 6 7 8 9 10 11 12 13 14 15 16 17 18

000
FTUS41 KLWX 020111 AAA
TAFMRB
TAF AMD
KMRB 020111Z 0201/0224 VRB03KT 5SM BR SCT005 OVC030
     FM020500 29004KT P6SM BKN035
     FM021200 30008KT P6SM BKN060
     FM021500 31013G22KT P6SM SCT200=

USA.gov is the U.S. government's official web portal to all federal, state and local government web resources and services.